Time;durP1;ratioP1;P1;durP2;ratioP2;P2;SDS_P1;SDS_P2;PMS_P1;PMS_P2;Temp;Humidity;BMP_temperature;BMP_pressure;BME280_temperature;BME280_humidity;BME280_pressure;Samples;Min_cycle;Max_cycle;Signal;HPM_P1;HPM_P2
2021/09/04 04:01:33;;;;;;;6.73;6.03;;;7.70;96.30;;;;;;5445986;23;20524;-80
2021/09/04 04:03:58;;;;;;;7.33;6.00;;;7.70;96.30;;;;;;4975592;28;20788;-80
2021/09/04 04:06:24;;;;;;;7.40;6.00;;;7.80;96.30;;;;;;4987158;28;20416;-80
2021/09/04 04:08:49;;;;;;;8.63;6.53;;;7.80;96.30;;;;;;4997696;28;20191;-80
2021/09/04 04:11:14;;;;;;;10.93;6.30;;;7.80;96.30;;;;;;5004330;28;21017;-80
2021/09/04 04:13:40;;;;;;;8.30;6.07;;;7.80;96.30;;;;;;5000018;28;20195;-80
2021/09/04 04:16:06;;;;;;;6.83;6.13;;;7.80;96.30;;;;;;4998629;28;20200;-78
2021/09/04 04:18:35;;;;;;;9.10;6.47;;;7.70;96.30;;;;;;4999558;28;20538;-79
2021/09/04 04:21:02;;;;;;;6.90;6.20;;;7.70;96.30;;;;;;4983387;28;20445;-79
2021/09/04 04:23:27;;;;;;;10.80;6.17;;;7.70;96.30;;;;;;4977374;28;20464;-79
2021/09/04 04:25:53;;;;;;;8.30;7.40;;;7.70;96.30;;;;;;4978679;28;20418;-78
2021/09/04 04:28:19;;;;;;;11.03;6.10;;;7.70;96.30;;;;;;4976450;28;20208;-78
2021/09/04 04:33:20;;;;;;;7.50;6.30;;;7.80;96.30;;;;;;5377163;23;20483;-79
2021/09/04 04:35:45;;;;;;;7.53;6.63;;;7.70;96.30;;;;;;4986836;28;20426;-78
2021/09/04 04:38:11;;;;;;;7.33;6.60;;;7.70;96.30;;;;;;4999216;28;20161;-78
2021/09/04 04:40:36;;;;;;;7.53;5.70;;;7.70;96.30;;;;;;4990964;28;20683;-78
2021/09/04 04:43:02;;;;;;;8.10;5.97;;;7.70;96.30;;;;;;4987072;28;20198;-79
2021/09/04 04:45:27;;;;;;;13.03;6.13;;;7.80;96.30;;;;;;5009060;28;20179;-78
2021/09/04 04:47:53;;;;;;;8.33;7.03;;;7.90;96.30;;;;;;4991863;28;20180;-78
2021/09/04 04:50:19;;;;;;;10.07;6.47;;;7.90;96.30;;;;;;5013150;28;20172;-78
2021/09/04 04:52:45;;;;;;;8.17;6.27;;;8.00;96.30;;;;;;5011879;28;20188;-79
2021/09/04 04:55:11;;;;;;;8.00;6.30;;;8.00;96.30;;;;;;4995424;28;20435;-79
2021/09/04 04:57:37;;;;;;;8.50;6.00;;;8.10;96.30;;;;;;5005781;28;20411;-78
2021/09/04 05:00:03;;;;;;;6.60;6.00;;;8.20;96.30;;;;;;4982287;28;20290;-79
2021/09/04 05:02:29;;;;;;;7.60;5.53;;;8.20;96.30;;;;;;5005211;28;20202;-78
2021/09/04 05:04:54;;;;;;;7.00;5.60;;;8.30;96.30;;;;;;5007206;28;20770;-78
2021/09/04 05:07:20;;;;;;;8.33;6.47;;;8.30;96.30;;;;;;4994476;28;20671;-78
2021/09/04 05:09:45;;;;;;;7.10;6.10;;;8.40;96.30;;;;;;5000340;28;20184;-78
2021/09/04 05:12:11;;;;;;;7.87;5.83;;;8.50;96.30;;;;;;4993856;28;20532;-80
2021/09/04 05:14:36;;;;;;;6.50;5.70;;;8.70;96.30;;;;;;5006356;28;20208;-78
2021/09/04 05:17:02;;;;;;;7.07;6.30;;;8.80;96.30;;;;;;5013823;28;20209;-78
2021/09/04 05:19:27;;;;;;;8.43;6.20;;;9.10;96.30;;;;;;4980847;28;20692;-81
2021/09/04 05:21:52;;;;;;;10.90;6.73;;;9.80;96.30;;;;;;4993570;28;20724;-79
2021/09/04 05:24:18;;;;;;;9.27;6.00;;;10.60;96.30;;;;;;4994067;28;20221;-79
2021/09/04 05:26:44;;;;;;;7.97;5.53;;;11.30;96.30;;;;;;4994143;28;20177;-79
2021/09/04 05:29:09;;;;;;;6.43;4.90;;;12.30;96.30;;;;;;4993832;28;20648;-80
2021/09/04 05:31:35;;;;;;;7.50;5.33;;;12.90;96.30;;;;;;4998624;28;20201;-78
2021/09/04 05:34:00;;;;;;;6.33;5.00;;;13.40;96.30;;;;;;5003925;28;20231;-79
2021/09/04 05:36:26;;;;;;;5.87;4.87;;;13.60;96.30;;;;;;5002193;28;20637;-80
2021/09/04 05:38:51;;;;;;;7.77;4.90;;;13.60;96.30;;;;;;4999911;28;20176;-79
2021/09/04 05:41:17;;;;;;;6.60;5.03;;;13.70;96.30;;;;;;4999413;28;20197;-80
2021/09/04 05:43:42;;;;;;;5.73;4.60;;;13.90;96.30;;;;;;4989101;28;20203;-79
2021/09/04 05:46:07;;;;;;;5.97;5.13;;;14.40;96.30;;;;;;4991261;28;20177;-78
2021/09/04 05:48:33;;;;;;;5.23;4.70;;;15.10;96.30;;;;;;4978882;28;20888;-81
2021/09/04 05:50:59;;;;;;;7.00;4.60;;;15.30;96.30;;;;;;4982261;28;20225;-79
2021/09/04 05:53:24;;;;;;;11.93;5.73;;;15.90;96.30;;;;;;5000374;28;20181;-79
2021/09/04 05:55:50;;;;;;;4.60;4.20;;;16.10;96.30;;;;;;4986484;28;20272;-79
2021/09/04 05:58:16;;;;;;;5.67;4.50;;;15.90;96.30;;;;;;5001386;28;20185;-79
2021/09/04 06:00:41;;;;;;;10.53;3.97;;;14.90;96.30;;;;;;4982397;28;20220;-79
2021/09/04 06:03:07;;;;;;;6.77;4.50;;;14.60;96.30;;;;;;4995864;28;20208;-79
2021/09/04 06:05:32;;;;;;;5.60;5.10;;;14.40;96.30;;;;;;5007041;28;20231;-78
2021/09/04 06:07:58;;;;;;;7.37;4.67;;;14.30;96.30;;;;;;5010831;28;20176;-78
2021/09/04 06:10:24;;;;;;;5.50;5.00;;;14.40;96.30;;;;;;5002110;28;20706;-78
2021/09/04 06:12:56;;;;;;;6.50;5.30;;;14.60;96.30;;;;;;5004252;28;20580;-78
2021/09/04 06:15:21;;;;;;;5.77;4.90;;;14.70;96.30;;;;;;4999774;28;20226;-79
2021/09/04 06:17:47;;;;;;;4.80;4.40;;;15.10;96.30;;;;;;5000749;28;20855;-80
2021/09/04 06:20:12;;;;;;;5.57;4.60;;;16.00;96.30;;;;;;5001263;28;20174;-80
2021/09/04 06:22:38;;;;;;;5.03;4.53;;;17.30;96.30;;;;;;5008522;28;20205;-80
2021/09/04 06:25:04;;;;;;;6.83;4.60;;;17.70;96.30;;;;;;4994660;28;20179;-80
2021/09/04 06:27:30;;;;;;;6.10;4.80;;;17.50;96.30;;;;;;4992746;28;20293;-80
2021/09/04 06:29:56;;;;;;;6.77;4.10;;;18.40;96.30;;;;;;4995242;28;20440;-80
2021/09/04 06:32:21;;;;;;;4.90;4.40;;;19.70;96.30;;;;;;4989475;28;20213;-80
2021/09/04 06:34:47;;;;;;;6.27;4.27;;;19.20;95.90;;;;;;5014172;28;20843;-80
2021/09/04 06:37:12;;;;;;;6.00;4.80;;;18.10;96.30;;;;;;5014063;28;20248;-80
2021/09/04 06:39:38;;;;;;;6.90;5.13;;;18.90;96.30;;;;;;4996333;28;20583;-80
2021/09/04 06:42:04;;;;;;;8.33;6.27;;;19.90;95.40;;;;;;5014371;28;20645;-80
2021/09/04 06:44:29;;;;;;;15.33;12.77;;;20.50;95.50;;;;;;5015584;28;20176;-80
2021/09/04 06:46:55;;;;;;;6.53;5.00;;;20.90;93.00;;;;;;5014643;28;20184;-80
2021/09/04 06:49:20;;;;;;;7.80;4.13;;;21.50;91.80;;;;;;5013990;28;20655;-80
2021/09/04 06:51:46;;;;;;;6.47;4.67;;;21.20;92.10;;;;;;5013489;28;20212;-80
2021/09/04 06:54:11;;;;;;;5.70;4.30;;;21.60;91.70;;;;;;5014043;28;20173;-80
2021/09/04 06:56:37;;;;;;;5.30;4.50;;;22.00;91.80;;;;;;5014426;28;20641;-80
2021/09/04 06:59:02;;;;;;;7.90;4.30;;;22.90;86.80;;;;;;4998381;28;20172;-80
2021/09/04 07:01:27;;;;;;;7.33;4.50;;;23.40;85.90;;;;;;5015990;28;20196;-80
2021/09/04 07:03:53;;;;;;;6.33;4.30;;;24.10;84.20;;;;;;5003980;28;20209;-81
2021/09/04 07:06:18;;;;;;;6.10;4.30;;;23.30;84.40;;;;;;4975875;28;20173;-82
2021/09/04 07:08:44;;;;;;;5.03;4.00;;;22.40;88.80;;;;;;4985926;28;20185;-81
2021/09/04 07:11:09;;;;;;;4.30;3.83;;;23.20;86.30;;;;;;4974891;28;20219;-81
2021/09/04 07:13:35;;;;;;;4.73;4.23;;;23.30;86.10;;;;;;4992690;28;20184;-79
2021/09/04 07:16:01;;;;;;;8.73;4.27;;;23.70;84.90;;;;;;4993700;28;20538;-79
2021/09/04 07:18:26;;;;;;;6.50;4.77;;;23.20;88.40;;;;;;4994431;28;20530;-79
2021/09/04 07:20:52;;;;;;;7.93;4.80;;;24.00;85.10;;;;;;5000217;28;20568;-82
2021/09/04 07:23:18;;;;;;;6.90;4.93;;;24.90;81.80;;;;;;4982658;28;20208;-81
2021/09/04 07:25:44;;;;;;;5.07;4.57;;;25.30;81.10;;;;;;4996604;28;20173;-83
2021/09/04 07:28:10;;;;;;;8.43;4.60;;;24.80;81.20;;;;;;4980376;28;20176;-82
2021/09/04 07:30:36;;;;;;;5.57;4.20;;;24.80;83.70;;;;;;4996623;28;20789;-82
2021/09/04 07:33:02;;;;;;;5.90;4.90;;;25.90;79.80;;;;;;5002142;28;20208;-82
2021/09/04 07:35:28;;;;;;;7.10;4.30;;;26.50;78.90;;;;;;5000278;28;20184;-83
2021/09/04 07:37:53;;;;;;;6.23;5.03;;;26.30;77.80;;;;;;4984705;28;20417;-82
2021/09/04 07:40:19;;;;;;;6.67;4.77;;;27.20;76.60;;;;;;4964741;28;20182;-82
2021/09/04 07:42:45;;;;;;;5.40;4.57;;;26.30;78.80;;;;;;4999285;28;20204;-83
2021/09/04 07:45:10;;;;;;;6.90;4.77;;;25.40;83.30;;;;;;4981746;28;20180;-84
2021/09/04 07:47:36;;;;;;;6.77;5.00;;;25.40;81.50;;;;;;5000448;28;20204;-84
2021/09/04 07:50:02;;;;;;;6.97;4.70;;;24.60;82.50;;;;;;5002049;28;20189;-83
2021/09/04 07:52:28;;;;;;;5.70;5.20;;;23.50;84.70;;;;;;4984119;28;20232;-83
2021/09/04 07:54:53;;;;;;;6.50;5.17;;;24.50;86.80;;;;;;4986012;28;20428;-80
2021/09/04 07:57:19;;;;;;;6.60;5.27;;;25.20;83.10;;;;;;4987012;28;20193;-81
2021/09/04 07:59:45;;;;;;;8.60;5.97;;;25.90;81.80;;;;;;5003278;28;20177;-81
2021/09/04 08:02:10;;;;;;;6.63;6.00;;;25.70;81.90;;;;;;5003962;28;20772;-85
2021/09/04 08:04:36;;;;;;;9.57;6.73;;;26.40;80.00;;;;;;5004542;28;20432;-85
2021/09/04 08:07:02;;;;;;;8.50;6.60;;;26.40;79.00;;;;;;4986125;28;20252;-83
2021/09/04 08:09:27;;;;;;;8.20;7.43;;;26.30;80.60;;;;;;4978573;28;20174;-85
2021/09/04 08:11:53;;;;;;;7.57;6.63;;;26.50;79.40;;;;;;4962908;28;20224;-81
2021/09/04 08:14:18;;;;;;;7.40;6.23;;;26.40;79.70;;;;;;4981167;28;20208;-83
2021/09/04 08:16:44;;;;;;;7.30;6.33;;;25.60;81.10;;;;;;4996587;28;20572;-84
2021/09/04 08:19:10;;;;;;;7.43;6.70;;;26.40;80.70;;;;;;4993007;28;20173;-83
2021/09/04 08:21:35;;;;;;;8.87;6.50;;;27.10;79.20;;;;;;5006500;28;20188;-84
2021/09/04 08:24:01;;;;;;;9.53;6.60;;;27.00;79.00;;;;;;5009876;28;20220;-82
2021/09/04 08:26:26;;;;;;;7.10;6.40;;;26.80;81.60;;;;;;4984356;28;20201;-80
2021/09/04 08:28:52;;;;;;;14.60;7.67;;;26.80;80.90;;;;;;4990926;28;20184;-84
2021/09/04 08:31:17;;;;;;;7.93;7.13;;;26.30;81.90;;;;;;4982882;28;20212;-85
2021/09/04 08:33:43;;;;;;;13.13;7.10;;;26.10;81.70;;;;;;4980373;28;20181;-84
2021/09/04 08:36:08;;;;;;;7.70;6.60;;;25.80;82.70;;;;;;4997396;28;20177;-82
2021/09/04 08:38:34;;;;;;;14.63;8.13;;;26.00;82.00;;;;;;5002760;28;20535;-81
2021/09/04 08:40:59;;;;;;;9.33;7.70;;;26.10;83.10;;;;;;4983254;28;20224;-84
2021/09/04 08:43:25;;;;;;;9.73;6.90;;;26.10;84.00;;;;;;4982526;28;20661;-81
2021/09/04 08:45:50;;;;;;;12.83;8.57;;;25.70;86.00;;;;;;4972599;28;20196;-81
2021/09/04 08:48:20;;;;;;;7.73;7.03;;;25.30;85.70;;;;;;4991442;28;20188;-81
2021/09/04 08:50:45;;;;;;;9.70;7.80;;;25.00;85.20;;;;;;4983716;28;20723;-80
2021/09/04 08:53:11;;;;;;;10.37;8.00;;;24.20;89.00;;;;;;5000730;28;20467;-79
2021/09/04 08:55:37;;;;;;;11.83;7.97;;;23.70;91.30;;;;;;4999241;28;20680;-81
2021/09/04 08:58:03;;;;;;;8.30;7.47;;;23.10;92.20;;;;;;4986171;28;20181;-80
2021/09/04 09:00:37;;;;;;;8.77;7.90;;;23.40;95.30;;;;;;5002969;28;20177;-82
2021/09/04 09:03:03;;;;;;;10.03;7.63;;;24.00;91.80;;;;;;5008525;28;20212;-82
2021/09/04 09:05:40;;;;;;;7.70;6.90;;;24.50;93.10;;;;;;5010639;28;20906;-82
2021/09/04 09:08:06;;;;;;;13.33;7.60;;;23.90;90.20;;;;;;5003062;28;20208;-81
2021/09/04 09:10:37;;;;;;;10.63;7.97;;;23.90;93.20;;;;;;4967044;28;20540;-81
2021/09/04 09:13:04;;;;;;;11.40;8.30;;;23.80;93.50;;;;;;4982146;28;20179;-82
2021/09/04 09:15:33;;;;;;;21.80;8.60;;;24.40;90.80;;;;;;4986500;28;20424;-83
2021/09/04 09:18:06;;;;;;;9.27;7.93;;;24.50;90.40;;;;;;4985632;28;20769;-81
2021/09/04 09:20:32;;;;;;;10.10;8.50;;;24.30;92.10;;;;;;4983685;28;20913;-81
2021/09/04 09:23:12;;;;;;;18.80;8.70;;;24.70;94.80;;;;;;4981303;28;20513;-81
2021/09/04 09:25:40;;;;;;;10.90;8.83;;;24.70;87.60;;;;;;4982947;28;20198;-82
2021/09/04 09:28:10;;;;;;;10.70;9.00;;;25.30;90.20;;;;;;4981864;28;20420;-83
2021/09/04 09:30:46;;;;;;;9.97;8.97;;;25.80;90.30;;;;;;4981895;28;20432;-84
2021/09/04 09:33:14;;;;;;;13.00;10.07;;;26.50;84.90;;;;;;4981460;28;20925;-83
2021/09/04 09:35:41;;;;;;;15.10;10.27;;;25.50;87.30;;;;;;4982846;28;20428;-82
2021/09/04 09:38:09;;;;;;;13.60;10.93;;;25.30;87.20;;;;;;4964938;28;20421;-82
2021/09/04 09:40:36;;;;;;;15.80;10.50;;;25.60;86.30;;;;;;4983635;28;20525;-82
2021/09/04 09:43:10;;;;;;;13.97;12.40;;;25.80;84.10;;;;;;4998825;28;20736;-82
2021/09/04 09:45:48;;;;;;;13.40;11.50;;;25.60;86.70;;;;;;5002401;28;20408;-82
2021/09/04 09:48:19;;;;;;;16.07;12.20;;;25.20;85.30;;;;;;5002467;28;20404;-83
2021/09/04 09:50:45;;;;;;;18.63;11.80;;;24.50;87.50;;;;;;4985364;28;20948;-82
2021/09/04 09:53:11;;;;;;;14.00;11.30;;;24.80;88.10;;;;;;5002775;28;20409;-82
2021/09/04 09:55:42;;;;;;;19.70;12.80;;;24.60;89.40;;;;;;4986511;28;20463;-82
2021/09/04 09:58:09;;;;;;;13.43;12.03;;;24.30;88.60;;;;;;5003010;28;20181;-82
2021/09/04 10:00:35;;;;;;;13.50;12.07;;;24.60;88.30;;;;;;5002026;28;20531;-83
2021/09/04 10:03:04;;;;;;;17.83;12.37;;;24.00;89.40;;;;;;5002895;28;20468;-83
2021/09/04 10:05:30;;;;;;;15.43;13.83;;;24.30;91.50;;;;;;4985901;28;20182;-82
2021/09/04 10:07:57;;;;;;;16.10;12.33;;;24.20;89.40;;;;;;4989311;28;20492;-82
2021/09/04 10:10:29;;;;;;;17.73;13.47;;;23.50;94.70;;;;;;4987042;28;20504;-83
2021/09/04 10:12:56;;;;;;;16.57;13.97;;;23.30;91.50;;;;;;4985781;28;20425;-81
2021/09/04 10:15:29;;;;;;;14.57;12.77;;;23.50;92.40;;;;;;5007465;28;20416;-82
2021/09/04 10:17:57;;;;;;;19.23;14.03;;;23.60;92.80;;;;;;5003532;28;20401;-84
2021/09/04 10:20:25;;;;;;;17.50;13.70;;;23.80;91.40;;;;;;5004028;28;20424;-84
2021/09/04 10:22:54;;;;;;;15.87;13.80;;;23.50;92.20;;;;;;4981770;28;20457;-84
2021/09/04 10:25:19;;;;;;;19.40;13.93;;;23.30;92.90;;;;;;4983223;28;20484;-84
2021/09/04 10:27:47;;;;;;;20.67;14.80;;;22.90;93.30;;;;;;4982904;28;20460;-81
2021/09/04 10:30:33;;;;;;;20.23;15.17;;;22.80;93.00;;;;;;4985927;28;20197;-84
2021/09/04 10:33:12;;;;;;;24.17;14.37;;;22.60;96.30;;;;;;5002977;28;20448;-84
2021/09/04 10:35:57;;;;;;;16.93;14.60;;;23.30;96.30;;;;;;4989706;28;20508;-82
2021/09/04 10:38:28;;;;;;;21.40;16.00;;;23.00;92.90;;;;;;4985373;28;20479;-79
2021/09/04 10:41:16;;;;;;;17.10;15.30;;;23.30;94.90;;;;;;4985695;28;20576;-81
2021/09/04 10:43:44;;;;;;;17.23;15.20;;;23.10;96.10;;;;;;4999627;28;20441;-84
2021/09/04 10:46:17;;;;;;;17.90;15.90;;;23.10;93.00;;;;;;4984092;28;20452;-84
2021/09/04 10:48:52;;;;;;;16.80;14.00;;;23.10;93.00;;;;;;4999371;28;20904;-83
2021/09/04 10:51:18;;;;;;;17.97;15.30;;;22.70;93.30;;;;;;4994217;28;20462;-84
2021/09/04 10:53:45;;;;;;;19.13;15.63;;;22.70;96.30;;;;;;5004480;28;20492;-83
2021/09/04 10:56:22;;;;;;;22.40;15.67;;;23.00;94.50;;;;;;5002949;28;20197;-83
2021/09/04 10:58:50;;;;;;;19.43;15.63;;;22.80;94.40;;;;;;4998702;28;20413;-84
2021/09/04 11:01:26;;;;;;;19.60;16.40;;;22.50;94.50;;;;;;4983097;28;20448;-83
2021/09/04 11:03:53;;;;;;;20.17;16.57;;;23.00;96.30;;;;;;4978988;28;21115;-83
2021/09/04 11:06:20;;;;;;;19.10;15.53;;;22.90;94.90;;;;;;4982324;28;20463;-83
2021/09/04 11:08:46;;;;;;;18.77;14.90;;;23.00;96.30;;;;;;4998904;28;20452;-84
2021/09/04 11:11:35;;;;;;;17.60;15.47;;;23.30;96.30;;;;;;4985878;28;20432;-83
2021/09/04 11:14:16;;;;;;;16.77;13.83;;;23.50;91.80;;;;;;4988300;28;20254;-83
2021/09/04 11:16:45;;;;;;;20.63;15.50;;;23.20;93.00;;;;;;4977057;28;20486;-84
2021/09/04 11:19:18;;;;;;;20.87;14.47;;;22.90;94.40;;;;;;4975494;28;20417;-84
2021/09/04 11:22:10;;;;;;;20.10;15.70;;;23.10;93.90;;;;;;4992249;28;20436;-83
2021/09/04 11:24:48;;;;;;;21.00;15.00;;;23.30;94.30;;;;;;4975979;28;20440;-83
2021/09/04 11:27:17;;;;;;;15.10;13.03;;;23.30;92.60;;;;;;4976173;28;20434;-83
2021/09/04 11:29:47;;;;;;;20.90;15.10;;;23.10;93.40;;;;;;4959957;28;21011;-80
2021/09/04 11:32:14;;;;;;;21.77;14.40;;;22.80;95.40;;;;;;4976949;28;20526;-82
2021/09/04 11:34:46;;;;;;;19.93;15.30;;;23.00;93.80;;;;;;4983016;28;20406;-82
2021/09/04 11:37:28;;;;;;;22.23;16.13;;;23.10;96.30;;;;;;4966082;28;20425;-81
2021/09/04 11:40:10;;;;;;;24.70;16.60;;;23.10;96.30;;;;;;4978596;28;20762;-82
2021/09/04 11:42:40;;;;;;;25.30;16.40;;;22.90;96.00;;;;;;4955963;28;20551;-80
2021/09/04 11:45:07;;;;;;;22.57;16.77;;;22.80;96.30;;;;;;4979698;28;20414;-82
2021/09/04 11:47:35;;;;;;;26.87;17.00;;;23.70;96.30;;;;;;4967072;28;20497;-81
2021/09/04 11:50:04;;;;;;;21.13;17.00;;;24.00;94.20;;;;;;4967680;28;20453;-81
2021/09/04 11:52:36;;;;;;;20.17;17.03;;;23.80;93.10;;;;;;4970263;28;20894;-79
2021/09/04 11:55:08;;;;;;;21.70;17.33;;;23.70;95.70;;;;;;4978727;28;20827;-80
2021/09/04 11:57:35;;;;;;;22.07;15.90;;;23.30;94.70;;;;;;4996318;28;20475;-80
2021/09/04 12:00:12;;;;;;;21.80;16.80;;;23.20;96.30;;;;;;4997087;28;20515;-79
2021/09/04 12:02:46;;;;;;;19.40;15.70;;;23.20;94.60;;;;;;4994033;28;20444;-81
2021/09/04 12:05:14;;;;;;;21.40;16.17;;;23.40;94.70;;;;;;4999974;28;20467;-80
2021/09/04 12:07:41;;;;;;;21.40;16.80;;;23.50;96.30;;;;;;4985763;28;20511;-84
2021/09/04 12:10:08;;;;;;;20.80;16.33;;;23.60;95.30;;;;;;4988085;28;20425;-79
2021/09/04 12:12:34;;;;;;;24.73;17.57;;;23.20;95.50;;;;;;4982378;28;20437;-80
2021/09/04 12:15:02;;;;;;;21.93;16.60;;;23.40;96.30;;;;;;4986788;28;20516;-80
2021/09/04 12:17:27;;;;;;;27.60;17.87;;;23.60;96.20;;;;;;4964324;28;20421;-80
2021/09/04 12:19:53;;;;;;;22.50;16.90;;;24.10;96.30;;;;;;4980291;28;20445;-80
2021/09/04 12:22:31;;;;;;;22.57;16.33;;;24.10;92.30;;;;;;4979907;28;20202;-80
2021/09/04 12:24:56;;;;;;;19.27;15.90;;;23.70;95.30;;;;;;4984603;28;20415;-80
2021/09/04 12:27:39;;;;;;;19.10;14.30;;;23.90;94.50;;;;;;4998433;28;20421;-79
2021/09/04 12:30:06;;;;;;;21.03;16.40;;;23.90;93.30;;;;;;4979838;28;20180;-80
2021/09/04 12:32:36;;;;;;;18.67;16.60;;;23.90;92.60;;;;;;4996894;28;20478;-81
2021/09/04 12:35:02;;;;;;;19.30;15.40;;;23.70;96.30;;;;;;4997947;28;20459;-80
2021/09/04 12:37:32;;;;;;;21.10;16.03;;;23.70;95.10;;;;;;4980663;28;20435;-79
2021/09/04 12:40:06;;;;;;;24.23;15.97;;;23.10;95.10;;;;;;4998428;28;20436;-79
2021/09/04 12:42:32;;;;;;;19.37;16.03;;;23.10;95.60;;;;;;4994157;28;20456;-80
2021/09/04 12:45:08;;;;;;;23.73;15.83;;;23.00;96.30;;;;;;4967901;28;20856;-81
2021/09/04 12:47:42;;;;;;;23.70;16.33;;;22.70;96.30;;;;;;4995565;28;20169;-77
2021/09/04 12:50:18;;;;;;;23.47;16.97;;;22.60;96.30;;;;;;4995253;28;20495;-78
2021/09/04 12:52:43;;;;;;;20.87;16.10;;;22.50;96.30;;;;;;4995068;28;20423;-78
2021/09/04 12:55:09;;;;;;;21.77;16.77;;;22.40;96.30;;;;;;4996499;28;20491;-76
2021/09/04 12:57:34;;;;;;;24.33;17.33;;;22.40;96.30;;;;;;4996269;28;20178;-77
2021/09/04 13:00:04;;;;;;;24.70;16.37;;;22.30;96.30;;;;;;4987925;28;20190;-77
2021/09/04 13:02:37;;;;;;;21.33;15.10;;;22.20;96.30;;;;;;4974963;28;20225;-76
2021/09/04 13:05:12;;;;;;;22.90;16.40;;;21.90;96.30;;;;;;4979105;28;20409;-78
2021/09/04 13:07:51;;;;;;;23.90;16.57;;;21.90;96.30;;;;;;4997870;28;20428;-82
2021/09/04 13:10:22;;;;;;;28.83;17.10;;;21.90;96.30;;;;;;4996644;28;20404;-80
2021/09/04 13:12:48;;;;;;;20.13;15.70;;;22.00;96.30;;;;;;4995889;28;20393;-81
2021/09/04 13:15:15;;;;;;;20.17;16.73;;;22.20;96.30;;;;;;4978452;28;20417;-83
2021/09/04 13:17:41;;;;;;;22.27;16.93;;;22.30;96.30;;;;;;4997246;28;20417;-81
2021/09/04 13:20:08;;;;;;;24.13;16.53;;;22.50;96.30;;;;;;4979706;28;20492;-82
2021/09/04 13:22:37;;;;;;;22.60;16.47;;;22.90;96.30;;;;;;4996846;28;20468;-80
2021/09/04 13:25:07;;;;;;;20.37;16.20;;;23.00;96.30;;;;;;4980646;28;20413;-83
2021/09/04 13:27:34;;;;;;;22.93;15.60;;;23.00;96.30;;;;;;4980423;28;20409;-82
2021/09/04 13:29:59;;;;;;;19.70;16.90;;;23.30;96.30;;;;;;4980244;28;20408;-81
2021/09/04 13:32:25;;;;;;;18.50;15.37;;;23.50;96.30;;;;;;4996836;28;20460;-81
2021/09/04 13:34:50;;;;;;;21.17;15.23;;;23.60;96.30;;;;;;4997849;28;20174;-78
2021/09/04 13:37:16;;;;;;;23.93;16.07;;;23.40;96.30;;;;;;4997515;28;20182;-82
2021/09/04 13:39:41;;;;;;;24.03;16.30;;;22.90;96.30;;;;;;4998194;28;20224;-81
2021/09/04 13:42:07;;;;;;;17.77;14.80;;;22.80;96.30;;;;;;4997295;28;20689;-83
2021/09/04 13:44:34;;;;;;;20.30;16.00;;;22.80;96.30;;;;;;4998179;28;20253;-79
2021/09/04 13:47:02;;;;;;;21.50;17.10;;;22.70;96.30;;;;;;4997495;28;20211;-84
2021/09/04 13:49:28;;;;;;;21.73;17.23;;;22.60;96.30;;;;;;4991813;28;20952;-81
2021/09/04 13:51:53;;;;;;;21.37;16.07;;;22.60;96.30;;;;;;4980092;28;20422;-84
2021/09/04 13:54:19;;;;;;;17.47;15.33;;;22.30;96.30;;;;;;4979341;28;20245;-80
2021/09/04 13:56:44;;;;;;;18.70;15.87;;;22.00;96.30;;;;;;4997758;28;20182;-81
2021/09/04 13:59:10;;;;;;;23.03;16.00;;;22.30;96.30;;;;;;4997462;28;20630;-81
2021/09/04 14:01:35;;;;;;;20.80;16.17;;;22.60;96.30;;;;;;4978551;28;20231;-83
2021/09/04 14:04:01;;;;;;;20.67;15.90;;;22.80;96.30;;;;;;4997155;28;20209;-81
2021/09/04 14:06:26;;;;;;;21.40;16.73;;;22.50;96.30;;;;;;4996313;28;20227;-80
2021/09/04 14:08:53;;;;;;;19.40;16.73;;;22.80;96.30;;;;;;4995926;28;20178;-82
2021/09/04 14:11:18;;;;;;;27.80;15.50;;;23.00;96.30;;;;;;4995428;28;20197;-82
2021/09/04 14:13:44;;;;;;;17.23;14.60;;;22.70;96.30;;;;;;4996147;28;20424;-82
2021/09/04 14:16:09;;;;;;;23.87;18.70;;;22.60;96.30;;;;;;4980505;28;20178;-79
2021/09/04 14:18:35;;;;;;;29.70;17.00;;;22.40;96.30;;;;;;4996910;28;20185;-78
2021/09/04 14:21:00;;;;;;;21.83;16.30;;;22.30;96.30;;;;;;4977387;28;20210;-79
2021/09/04 14:23:26;;;;;;;20.77;15.13;;;22.30;96.30;;;;;;4995248;28;20212;-79
2021/09/04 14:25:51;;;;;;;19.50;14.97;;;22.40;96.30;;;;;;4994760;28;20282;-79
2021/09/04 14:28:17;;;;;;;22.30;14.40;;;22.60;96.30;;;;;;4995154;28;20182;-79
2021/09/04 14:30:42;;;;;;;17.57;14.13;;;22.20;96.30;;;;;;4994349;28;20197;-79
2021/09/04 14:33:08;;;;;;;19.10;15.43;;;21.90;96.30;;;;;;4992917;28;20193;-77
2021/09/04 14:35:34;;;;;;;18.73;15.83;;;21.90;96.30;;;;;;4994328;28;20181;-77
2021/09/04 14:37:59;;;;;;;18.90;13.90;;;21.90;96.30;;;;;;4993475;28;20173;-79
2021/09/04 14:40:27;;;;;;;19.30;15.03;;;21.90;96.30;;;;;;4976060;28;20256;-79
2021/09/04 14:42:53;;;;;;;16.03;13.60;;;22.00;96.30;;;;;;4993027;28;20193;-76
2021/09/04 14:45:19;;;;;;;23.00;15.03;;;22.10;96.30;;;;;;4993115;28;20405;-80
2021/09/04 14:47:45;;;;;;;18.60;15.30;;;21.80;96.30;;;;;;4993445;28;20492;-77
2021/09/04 14:50:11;;;;;;;18.63;14.87;;;21.80;96.30;;;;;;4993050;28;20205;-79
2021/09/04 14:52:38;;;;;;;23.73;15.80;;;21.80;96.30;;;;;;4978281;28;20206;-79
2021/09/04 14:55:04;;;;;;;27.23;15.60;;;21.30;96.30;;;;;;4956697;28;20453;-79
2021/09/04 14:57:30;;;;;;;23.50;15.67;;;21.50;96.30;;;;;;4973871;28;20421;-78
2021/09/04 14:59:55;;;;;;;18.73;14.87;;;21.70;96.30;;;;;;4973799;28;20488;-78
2021/09/04 15:02:21;;;;;;;18.40;13.97;;;21.80;96.30;;;;;;4972508;28;20198;-75
2021/09/04 15:04:47;;;;;;;18.13;14.87;;;21.80;96.30;;;;;;4990135;28;20181;-76
2021/09/04 15:07:12;;;;;;;23.37;14.40;;;21.60;96.30;;;;;;4961279;28;20189;-78
2021/09/04 15:09:40;;;;;;;18.20;14.97;;;21.50;96.30;;;;;;4973802;28;20249;-76
2021/09/04 15:12:05;;;;;;;21.80;14.10;;;21.30;96.30;;;;;;4992908;28;20224;-79
2021/09/04 15:14:31;;;;;;;22.73;14.90;;;21.40;96.30;;;;;;4994978;28;20529;-78
2021/09/04 15:16:57;;;;;;;20.53;14.57;;;21.30;96.30;;;;;;4994817;28;20185;-78
2021/09/04 15:19:22;;;;;;;18.50;13.77;;;21.40;96.30;;;;;;4994524;28;20576;-79
2021/09/04 15:21:49;;;;;;;26.30;16.20;;;21.20;96.30;;;;;;4993937;28;20200;-79
2021/09/04 15:24:15;;;;;;;22.87;15.77;;;21.00;96.30;;;;;;4994550;28;20203;-79
2021/09/04 15:26:44;;;;;;;22.63;16.80;;;20.80;96.30;;;;;;4981471;28;20489;-78
2021/09/04 15:29:09;;;;;;;18.93;14.63;;;20.80;96.30;;;;;;4975239;28;20166;-80
2021/09/04 15:31:35;;;;;;;18.27;15.70;;;20.70;96.30;;;;;;4974153;28;20513;-79
2021/09/04 15:34:00;;;;;;;25.83;15.80;;;20.70;96.30;;;;;;4974035;28;20248;-79
2021/09/04 15:36:29;;;;;;;23.50;15.77;;;20.80;96.30;;;;;;4974095;28;20725;-79
2021/09/04 15:38:55;;;;;;;23.10;15.70;;;20.90;96.30;;;;;;4976182;28;20265;-80
2021/09/04 15:41:21;;;;;;;29.83;17.80;;;20.90;96.30;;;;;;4977305;28;20449;-80
2021/09/04 15:43:46;;;;;;;25.20;17.07;;;20.90;96.30;;;;;;4976866;28;20445;-78
2021/09/04 15:46:12;;;;;;;20.37;16.53;;;20.80;96.30;;;;;;4976691;28;20170;-79
2021/09/04 15:48:40;;;;;;;22.97;17.60;;;20.90;96.30;;;;;;4976629;28;20202;-79
2021/09/04 15:51:05;;;;;;;29.70;17.33;;;20.80;96.30;;;;;;4976207;28;20194;-80
2021/09/04 15:53:31;;;;;;;26.00;18.37;;;20.90;96.30;;;;;;4976889;28;20426;-79
2021/09/04 15:55:56;;;;;;;22.73;16.63;;;20.90;96.30;;;;;;4976607;28;20215;-79
2021/09/04 15:58:23;;;;;;;26.57;18.17;;;20.80;96.30;;;;;;4976485;28;20253;-78
2021/09/04 16:00:49;;;;;;;21.97;17.37;;;20.60;96.30;;;;;;4976650;28;20201;-79
2021/09/04 16:03:15;;;;;;;25.70;17.37;;;20.40;96.30;;;;;;4975860;28;20449;-81
2021/09/04 16:05:40;;;;;;;28.00;17.20;;;20.20;96.30;;;;;;4977095;28;20181;-81
2021/09/04 16:08:06;;;;;;;25.23;17.70;;;20.20;96.30;;;;;;4961079;28;20178;-80
2021/09/04 16:10:31;;;;;;;31.43;18.00;;;20.20;96.30;;;;;;4980306;28;20631;-81
2021/09/04 16:12:57;;;;;;;22.63;18.27;;;20.10;96.30;;;;;;4962794;28;20190;-86
2021/09/04 16:15:22;;;;;;;24.83;18.53;;;19.90;96.30;;;;;;4962643;28;20537;-81
2021/09/04 16:17:48;;;;;;;23.47;17.90;;;19.60;96.30;;;;;;4965771;28;20237;-83
2021/09/04 16:20:14;;;;;;;37.43;19.17;;;19.60;96.30;;;;;;4968955;28;20174;-80
2021/09/04 16:22:40;;;;;;;32.07;17.50;;;19.50;96.30;;;;;;4979848;28;20190;-80
2021/09/04 16:25:05;;;;;;;31.73;17.50;;;19.50;96.30;;;;;;4978742;28;20808;-80
2021/09/04 16:27:31;;;;;;;24.43;17.40;;;19.40;96.30;;;;;;4997632;28;20209;-80
2021/09/04 16:29:57;;;;;;;18.30;15.60;;;19.40;96.30;;;;;;4997402;28;20539;-82
2021/09/04 16:32:23;;;;;;;22.27;18.10;;;19.30;96.30;;;;;;4996581;28;20213;-80
2021/09/04 16:34:49;;;;;;;24.30;18.63;;;19.10;96.30;;;;;;4996942;28;20265;-80
2021/09/04 16:37:17;;;;;;;25.07;18.17;;;19.00;96.30;;;;;;4980477;28;20464;-82
2021/09/04 16:39:42;;;;;;;25.03;18.47;;;18.90;96.30;;;;;;4998530;28;20177;-79